Time;durP1;ratioP1;P1;durP2;ratioP2;P2;SDS_P1;SDS_P2;PMS_P1;PMS_P2;Temp;Humidity;BMP_temperature;BMP_pressure;BME280_temperature;BME280_humidity;BME280_pressure;Samples;Min_cycle;Max_cycle;Signal;HPM_P1;HPM_P2
2021/01/29 00:01:32;;;;;;;;;;;5.40;99.90;;;;;;5091926;28;19923;-73
2021/01/29 00:04:38;;;;;;;;;;;5.60;99.90;;;;;;5094607;28;19919;-73
2021/01/29 00:07:43;;;;;;;;;;;5.50;99.90;;;;;;5093131;28;19920;-73
2021/01/29 00:10:48;;;;;;;;;;;5.60;99.90;;;;;;5079611;28;19920;-73
2021/01/29 00:13:52;;;;;;;;;;;5.60;99.90;;;;;;5094089;28;19923;-73
2021/01/29 00:16:56;;;;;;;;;;;5.70;99.90;;;;;;5092031;28;19927;-73
2021/01/29 00:20:00;;;;;;;;;;;5.70;99.90;;;;;;5092139;28;20440;-73
2021/01/29 00:23:04;;;;;;;;;;;5.50;99.90;;;;;;5082693;28;19924;-73
2021/01/29 00:26:08;;;;;;;;;;;5.50;99.90;;;;;;5088974;28;19923;-73
2021/01/29 00:29:13;;;;;;;;;;;5.60;99.90;;;;;;5092536;28;19924;-73
2021/01/29 00:32:17;;;;;;;;;;;5.40;99.90;;;;;;5093362;28;19939;-73
2021/01/29 00:35:22;;;;;;;;;;;5.50;99.90;;;;;;5088933;28;19920;-73
2021/01/29 00:38:26;;;;;;;;;;;5.60;99.90;;;;;;5084188;28;19934;-73
2021/01/29 00:41:30;;;;;;;;;;;5.70;99.90;;;;;;5092160;28;19930;-73
2021/01/29 00:44:35;;;;;;;;;;;5.80;99.90;;;;;;5091641;28;19923;-73
2021/01/29 00:47:39;;;;;;;;;;;5.90;99.90;;;;;;5092432;28;20258;-73
2021/01/29 00:50:43;;;;;;;;;;;5.90;99.90;;;;;;5081470;28;19939;-73
2021/01/29 00:53:47;;;;;;;;;;;5.80;99.90;;;;;;5104513;28;20274;-73
2021/01/29 00:57:02;;;;;;;;;;;5.80;99.90;;;;;;5090581;28;19919;-72
2021/01/29 01:00:08;;;;;;;;;;;5.60;99.90;;;;;;5091476;28;19923;-73
2021/01/29 01:03:18;;;;;;;;;;;5.60;99.90;;;;;;5092119;28;19919;-73
2021/01/29 01:06:23;;;;;;;;;;;5.50;99.90;;;;;;5091137;28;19923;-73
2021/01/29 01:09:56;;;;;;;;;;;5.50;99.90;;;;;;5064322;28;20279;-72
2021/01/29 01:13:28;;;;;;;;;;;5.50;99.90;;;;;;5092383;28;20435;-74
2021/01/29 01:16:51;;;;;;;;;;;5.60;99.90;;;;;;5091715;28;19943;-72
2021/01/29 01:20:25;;;;;;;;;;;5.60;99.90;;;;;;5090784;28;20670;-74
2021/01/29 01:23:29;;;;;;;;;;;5.60;99.90;;;;;;5089703;28;19927;-73
2021/01/29 01:26:33;;;;;;;;;;;5.50;99.90;;;;;;5077626;28;19923;-73
2021/01/29 01:30:13;;;;;;;;;;;5.60;99.90;;;;;;5079355;28;19927;-74
2021/01/29 01:33:18;;;;;;;;;;;5.50;99.90;;;;;;5089385;28;20557;-74
2021/01/29 01:36:37;;;;;;;;;;;5.40;99.90;;;;;;5095329;28;19919;-74
2021/01/29 01:40:00;;;;;;;;;;;5.40;99.90;;;;;;5090783;28;19923;-74
2021/01/29 01:43:04;;;;;;;;;;;5.40;99.90;;;;;;5108588;27;20251;-73
2021/01/29 01:46:15;;;;;;;;;;;5.40;99.90;;;;;;5090125;28;19923;-73
2021/01/29 01:49:42;;;;;;;;;;;5.40;99.90;;;;;;5083418;28;19923;-72
2021/01/29 01:52:54;;;;;;;;;;;5.50;99.90;;;;;;5082125;28;19927;-74
2021/01/29 01:56:14;;;;;;;;;;;5.40;99.90;;;;;;5090700;28;20555;-73
2021/01/29 01:59:49;;;;;;;;;;;5.30;99.90;;;;;;5075969;28;19923;-74
2021/01/29 02:03:03;;;;;;;;;;;5.40;99.90;;;;;;5090508;28;20278;-73
2021/01/29 02:06:50;;;;;;;;;;;5.40;99.90;;;;;;5048395;28;19935;-74
2021/01/29 02:10:14;;;;;;;;;;;5.30;99.90;;;;;;5037278;28;19923;-74
2021/01/29 02:13:20;;;;;;;;;;;5.30;99.90;;;;;;5089797;28;19990;-74
2021/01/29 02:16:34;;;;;;;;;;;5.40;99.90;;;;;;5099919;28;19935;-74
2021/01/29 02:20:04;;;;;;;;;;;5.40;99.90;;;;;;5082454;28;19939;-74
2021/01/29 02:23:29;;;;;;;;;;;5.50;99.90;;;;;;5084469;28;19923;-74
2021/01/29 02:26:54;;;;;;;;;;;5.60;99.90;;;;;;5090368;28;20394;-73
2021/01/29 02:30:08;;;;;;;;;;;5.50;99.90;;;;;;5100791;28;19920;-74
2021/01/29 02:33:52;;;;;;;;;;;5.60;99.90;;;;;;5090240;28;19959;-74
2021/01/29 02:37:04;;;;;;;;;;;5.70;99.90;;;;;;5101952;28;19935;-73
2021/01/29 02:40:13;;;;;;;;;;;5.60;99.90;;;;;;5112251;27;19923;-73
2021/01/29 02:43:17;;;;;;;;;;;5.70;99.90;;;;;;5088956;28;20428;-74
2021/01/29 02:47:00;;;;;;;;;;;5.80;99.90;;;;;;5090151;28;19943;-74
2021/01/29 02:50:33;;;;;;;;;;;5.80;99.90;;;;;;5076547;28;19919;-74
2021/01/29 02:53:53;;;;;;;;;;;6.00;99.90;;;;;;5090424;28;19927;-74
2021/01/29 02:57:49;;;;;;;;;;;6.00;99.90;;;;;;5087563;28;19919;-74
2021/01/29 03:01:13;;;;;;;;;;;6.00;99.90;;;;;;5081870;28;19923;-74
2021/01/29 03:04:23;;;;;;;;;;;6.10;99.90;;;;;;5081424;28;19919;-74
2021/01/29 03:07:52;;;;;;;;;;;6.00;99.90;;;;;;5109755;28;19939;-74
2021/01/29 03:11:22;;;;;;;;;;;5.80;99.90;;;;;;5088532;28;19919;-74
2021/01/29 03:14:44;;;;;;;;;;;5.60;99.90;;;;;;5081963;28;19923;-74
2021/01/29 03:18:12;;;;;;;;;;;5.60;99.90;;;;;;5083391;28;19927;-75
2021/01/29 03:21:36;;;;;;;;;;;5.60;99.90;;;;;;5083751;28;19923;-75
2021/01/29 03:25:01;;;;;;;;;;;5.40;99.90;;;;;;5089519;28;19924;-75
2021/01/29 03:28:26;;;;;;;;;;;5.50;99.90;;;;;;5080172;28;19923;-75
2021/01/29 03:31:51;;;;;;;;;;;5.60;99.90;;;;;;5075970;28;19927;-75
2021/01/29 03:35:17;;;;;;;;;;;5.60;99.90;;;;;;5082571;28;19931;-75
2021/01/29 03:38:56;;;;;;;;;;;5.70;99.90;;;;;;5084931;28;19919;-75
2021/01/29 03:42:19;;;;;;;;;;;5.70;99.90;;;;;;5083840;28;19974;-75
2021/01/29 03:45:48;;;;;;;;;;;5.80;99.90;;;;;;5078816;28;19931;-74
2021/01/29 03:49:25;;;;;;;;;;;5.80;99.90;;;;;;5080599;28;19919;-75
2021/01/29 03:53:17;;;;;;;;;;;5.80;99.90;;;;;;5062493;28;20295;-75
2021/01/29 03:56:43;;;;;;;;;;;5.90;99.90;;;;;;5070747;28;19919;-75
2021/01/29 04:00:11;;;;;;;;;;;5.90;99.90;;;;;;5089477;28;19919;-76
2021/01/29 04:03:41;;;;;;;;;;;5.90;99.90;;;;;;5092996;28;19919;-75
2021/01/29 04:07:23;;;;;;;;;;;6.00;99.90;;;;;;5094004;28;20374;-75
2021/01/29 04:10:49;;;;;;;;;;;6.20;99.90;;;;;;5081716;28;19919;-75
2021/01/29 04:14:51;;;;;;;;;;;6.10;99.90;;;;;;5070141;28;19922;-75
2021/01/29 04:18:03;;;;;;;;;;;6.10;99.90;;;;;;5065198;28;19919;-75
2021/01/29 04:21:07;;;;;;;;;;;6.20;99.90;;;;;;5082056;28;19919;-75
2021/01/29 04:24:13;;;;;;;;;;;6.30;99.90;;;;;;5081139;28;19927;-75
2021/01/29 04:27:19;;;;;;;;;;;6.30;99.90;;;;;;5115415;27;20370;-75
2021/01/29 04:30:26;;;;;;;;;;;6.10;99.90;;;;;;5081206;28;19919;-75
2021/01/29 04:33:38;;;;;;;;;;;5.80;99.90;;;;;;5080347;28;19939;-75
2021/01/29 04:36:43;;;;;;;;;;;5.70;99.90;;;;;;5092849;28;20270;-75
2021/01/29 04:39:52;;;;;;;;;;;5.60;99.90;;;;;;5092173;28;19927;-74
2021/01/29 04:43:15;;;;;;;;;;;5.70;99.90;;;;;;5093865;28;19919;-74
2021/01/29 04:46:27;;;;;;;;;;;5.80;99.90;;;;;;5092523;28;19927;-75
2021/01/29 04:49:52;;;;;;;;;;;6.00;99.90;;;;;;5092351;28;19939;-74
2021/01/29 04:53:15;;;;;;;;;;;6.10;99.90;;;;;;5086047;28;19927;-75
2021/01/29 04:56:19;;;;;;;;;;;6.20;99.90;;;;;;5088372;28;19919;-74
2021/01/29 04:59:41;;;;;;;;;;;6.30;99.90;;;;;;5089122;28;19950;-76
2021/01/29 05:03:15;;;;;;;;;;;6.40;99.90;;;;;;5086698;28;19919;-75
2021/01/29 05:07:02;;;;;;;;;;;6.50;99.90;;;;;;5091973;28;19923;-74
2021/01/29 05:10:26;;;;;;;;;;;6.50;99.90;;;;;;5085821;28;19927;-75
2021/01/29 05:13:49;;;;;;;;;;;6.60;99.90;;;;;;5091251;28;19923;-75
2021/01/29 05:16:56;;;;;;;;;;;6.40;99.90;;;;;;5091073;28;19938;-74
2021/01/29 05:20:00;;;;;;;;;;;6.60;99.90;;;;;;5091498;28;20282;-74
2021/01/29 05:23:21;;;;;;;;;;;6.60;99.90;;;;;;5090757;28;20382;-74
2021/01/29 05:26:43;;;;;;;;;;;6.80;99.90;;;;;;5090606;28;19959;-75
2021/01/29 05:30:00;;;;;;;;;;;6.80;99.90;;;;;;5090223;28;19919;-74
2021/01/29 05:33:15;;;;;;;;;;;7.00;99.90;;;;;;5090182;28;19927;-75
2021/01/29 05:36:38;;;;;;;;;;;7.00;99.90;;;;;;5088628;28;19923;-75
2021/01/29 05:39:55;;;;;;;;;;;6.80;99.90;;;;;;5088114;28;19927;-76
2021/01/29 05:43:18;;;;;;;;;;;6.70;99.90;;;;;;5086178;28;19923;-73
2021/01/29 05:46:35;;;;;;;;;;;6.70;99.90;;;;;;5088553;28;19961;-74
2021/01/29 05:49:50;;;;;;;;;;;6.70;99.90;;;;;;5079277;28;19919;-75
2021/01/29 05:53:11;;;;;;;;;;;6.70;99.90;;;;;;5074769;28;19924;-75
2021/01/29 05:56:27;;;;;;;;;;;6.60;99.90;;;;;;5079566;28;19919;-74
2021/01/29 05:59:37;;;;;;;;;;;6.70;99.90;;;;;;5085191;28;19931;-74
2021/01/29 06:03:06;;;;;;;;;;;7.00;99.90;;;;;;5086098;28;19922;-74
2021/01/29 06:06:10;;;;;;;;;;;7.00;99.90;;;;;;5080488;28;19919;-75
2021/01/29 06:09:24;;;;;;;;;;;7.20;99.90;;;;;;5085921;28;19923;-74
2021/01/29 06:12:46;;;;;;;;;;;7.30;99.90;;;;;;5089502;28;19923;-76
2021/01/29 06:16:11;;;;;;;;;;;7.30;99.90;;;;;;5088138;28;19923;-75
2021/01/29 06:19:24;;;;;;;;;;;7.30;99.90;;;;;;5089197;28;19919;-74
2021/01/29 06:22:41;;;;;;;;;;;7.40;99.90;;;;;;5085810;28;19924;-74
2021/01/29 06:26:05;;;;;;;;;;;7.50;99.90;;;;;;5081906;28;20386;-74
2021/01/29 06:29:18;;;;;;;;;;;7.40;99.90;;;;;;5090241;28;19927;-74
2021/01/29 06:32:42;;;;;;;;;;;7.50;99.90;;;;;;5093023;28;19923;-75
2021/01/29 06:35:49;;;;;;;;;;;7.50;99.90;;;;;;5088905;28;19923;-74
2021/01/29 06:39:01;;;;;;;;;;;7.60;99.90;;;;;;5090768;28;19923;-74
2021/01/29 06:42:11;;;;;;;;;;;7.60;99.90;;;;;;5089267;28;19923;-74
2021/01/29 06:45:21;;;;;;;;;;;7.70;99.90;;;;;;5102923;27;19931;-74
2021/01/29 06:48:29;;;;;;;;;;;7.90;99.90;;;;;;5086908;28;19927;-74
2021/01/29 06:51:51;;;;;;;;;;;8.00;99.90;;;;;;5088050;28;19935;-74
2021/01/29 06:55:20;;;;;;;;;;;8.10;99.90;;;;;;5089510;28;19927;-74
2021/01/29 06:58:34;;;;;;;;;;;8.10;99.90;;;;;;5088282;28;20458;-75
2021/01/29 07:01:39;;;;;;;;;;;7.90;99.90;;;;;;5087261;28;19923;-75
2021/01/29 07:04:49;;;;;;;;;;;8.00;99.90;;;;;;5097299;28;19923;-74
2021/01/29 07:08:00;;;;;;;;;;;7.90;99.90;;;;;;5092540;28;19986;-74
2021/01/29 07:11:09;;;;;;;;;;;7.90;99.90;;;;;;5091867;28;19935;-76
2021/01/29 07:14:19;;;;;;;;;;;7.70;99.90;;;;;;5090768;28;20271;-75
2021/01/29 07:17:26;;;;;;;;;;;7.70;99.90;;;;;;5087985;28;19919;-74
2021/01/29 07:20:36;;;;;;;;;;;7.80;99.90;;;;;;5089141;28;21266;-73
2021/01/29 07:24:01;;;;;;;;;;;7.80;99.90;;;;;;5088465;28;19923;-74
2021/01/29 07:27:17;;;;;;;;;;;8.00;99.90;;;;;;5088884;28;19934;-73
2021/01/29 07:30:22;;;;;;;;;;;8.10;99.90;;;;;;5086446;28;19923;-74
2021/01/29 07:33:36;;;;;;;;;;;7.90;99.90;;;;;;5088431;28;19935;-73
2021/01/29 07:36:40;;;;;;;;;;;7.90;99.90;;;;;;5084908;28;19919;-74
2021/01/29 07:40:13;;;;;;;;;;;7.90;99.90;;;;;;5088866;28;19938;-73
2021/01/29 07:43:20;;;;;;;;;;;7.80;99.90;;;;;;5091021;28;19923;-75
2021/01/29 07:46:38;;;;;;;;;;;7.70;99.90;;;;;;5079987;28;19938;-74
2021/01/29 07:49:52;;;;;;;;;;;7.80;99.90;;;;;;5095217;28;19923;-74
2021/01/29 07:53:01;;;;;;;;;;;7.90;99.90;;;;;;5117573;27;19923;-75
2021/01/29 07:56:14;;;;;;;;;;;7.90;99.90;;;;;;5093720;28;19924;-74
2021/01/29 07:59:37;;;;;;;;;;;7.90;99.90;;;;;;5094893;28;19920;-74
2021/01/29 08:03:02;;;;;;;;;;;8.10;99.90;;;;;;5094759;28;19924;-75
2021/01/29 08:06:16;;;;;;;;;;;8.00;99.90;;;;;;5091129;28;20369;-74
2021/01/29 08:09:27;;;;;;;;;;;8.10;99.90;;;;;;5097651;28;19920;-75
2021/01/29 08:12:33;;;;;;;;;;;8.40;99.90;;;;;;5093380;28;19939;-74
2021/01/29 08:15:48;;;;;;;;;;;8.70;99.90;;;;;;5115556;27;19923;-74
2021/01/29 08:18:52;;;;;;;;;;;8.70;99.90;;;;;;5093403;28;20377;-74
2021/01/29 08:22:00;;;;;;;;;;;8.60;99.90;;;;;;5095893;28;19923;-75
2021/01/29 08:25:05;;;;;;;;;;;8.80;99.90;;;;;;5098296;28;19922;-75
2021/01/29 08:28:13;;;;;;;;;;;8.90;99.90;;;;;;5091802;28;19934;-75
2021/01/29 08:31:38;;;;;;;;;;;8.90;99.90;;;;;;5113862;27;19939;-72
2021/01/29 08:35:03;;;;;;;;;;;8.80;99.90;;;;;;5082603;28;19927;-74
2021/01/29 08:38:08;;;;;;;;;;;9.00;99.90;;;;;;5091520;28;20263;-75
2021/01/29 08:41:12;;;;;;;;;;;8.90;99.90;;;;;;5091958;28;20287;-74
2021/01/29 08:44:51;;;;;;;;;;;9.00;99.90;;;;;;5089329;28;19927;-73
2021/01/29 08:48:03;;;;;;;;;;;9.10;99.90;;;;;;5054645;28;20382;-73
2021/01/29 08:51:11;;;;;;;;;;;9.20;99.90;;;;;;5096556;28;19924;-73
2021/01/29 08:54:21;;;;;;;;;;;9.10;99.90;;;;;;5096485;28;19923;-74
2021/01/29 08:57:32;;;;;;;;;;;9.10;99.90;;;;;;5093136;28;19926;-74
2021/01/29 09:00:36;;;;;;;;;;;9.20;99.90;;;;;;5092329;28;19923;-74
2021/01/29 09:03:43;;;;;;;;;;;9.20;99.90;;;;;;5092251;28;19923;-73
2021/01/29 09:06:49;;;;;;;;;;;9.40;99.90;;;;;;5100271;28;19931;-73
2021/01/29 09:10:04;;;;;;;;;;;9.40;99.90;;;;;;5091097;28;19930;-73
2021/01/29 09:13:12;;;;;;;;;;;9.30;99.90;;;;;;5095808;28;19924;-73
2021/01/29 09:16:36;;;;;;;;;;;9.20;99.90;;;;;;5091764;28;19919;-73
2021/01/29 09:19:44;;;;;;;;;;;8.90;99.90;;;;;;5084918;28;19922;-73
2021/01/29 09:23:04;;;;;;;;;;;8.90;99.90;;;;;;5090153;28;19920;-74
2021/01/29 09:26:16;;;;;;;;;;;9.10;99.90;;;;;;5086954;28;19923;-72
2021/01/29 09:29:30;;;;;;;;;;;9.00;99.90;;;;;;5085504;28;19939;-73
2021/01/29 09:32:51;;;;;;;;;;;8.90;99.90;;;;;;5091432;28;20373;-74
2021/01/29 09:36:01;;;;;;;;;;;8.90;99.90;;;;;;5092388;28;19934;-74
2021/01/29 09:39:16;;;;;;;;;;;8.90;99.90;;;;;;5086425;28;19927;-74
2021/01/29 09:42:24;;;;;;;;;;;9.00;99.90;;;;;;5094405;28;19919;-74
2021/01/29 09:45:30;;;;;;;;;;;8.80;99.90;;;;;;5092112;28;19927;-75
2021/01/29 09:48:36;;;;;;;;;;;8.60;99.90;;;;;;5092890;28;19919;-73
2021/01/29 09:51:44;;;;;;;;;;;8.60;99.90;;;;;;5089942;28;19919;-74
2021/01/29 09:55:04;;;;;;;;;;;8.60;99.90;;;;;;5090336;28;19923;-74
2021/01/29 09:58:14;;;;;;;;;;;8.70;99.90;;;;;;5086847;28;19923;-74
2021/01/29 10:01:20;;;;;;;;;;;8.80;99.90;;;;;;5090511;28;19927;-74
2021/01/29 10:04:33;;;;;;;;;;;8.90;99.90;;;;;;5095063;28;20258;-74
2021/01/29 10:07:40;;;;;;;;;;;9.00;99.90;;;;;;5091847;28;19931;-74
2021/01/29 10:10:59;;;;;;;;;;;9.10;99.90;;;;;;5092981;28;20377;-74
2021/01/29 10:14:15;;;;;;;;;;;9.20;99.90;;;;;;5090347;28;19927;-73
2021/01/29 10:17:25;;;;;;;;;;;9.30;99.90;;;;;;5087412;28;20408;-72
2021/01/29 10:20:31;;;;;;;;;;;9.30;99.90;;;;;;5088860;28;19927;-74
2021/01/29 10:23:59;;;;;;;;;;;9.30;99.90;;;;;;5087999;28;19951;-75
2021/01/29 10:27:07;;;;;;;;;;;9.40;99.90;;;;;;5089184;28;19938;-74
2021/01/29 10:30:24;;;;;;;;;;;9.50;99.90;;;;;;5088122;28;20374;-74
2021/01/29 10:33:30;;;;;;;;;;;9.50;99.90;;;;;;5089037;28;20437;-75
2021/01/29 10:36:34;;;;;;;;;;;9.40;99.90;;;;;;5099155;28;19927;-74
2021/01/29 10:40:06;;;;;;;;;;;9.50;99.90;;;;;;5087494;28;19931;-74
2021/01/29 10:43:20;;;;;;;;;;;9.50;99.90;;;;;;5090639;28;19923;-74
2021/01/29 10:46:43;;;;;;;;;;;9.40;99.90;;;;;;5088588;28;19927;-74
2021/01/29 10:50:17;;;;;;;;;;;9.40;99.90;;;;;;5096234;28;19983;-73
2021/01/29 10:53:23;;;;;;;;;;;9.40;99.90;;;;;;5088821;28;19923;-73
2021/01/29 10:57:02;;;;;;;;;;;9.20;99.90;;;;;;5088432;28;19934;-72
2021/01/29 11:00:14;;;;;;;;;;;9.00;99.90;;;;;;5086843;28;19919;-73
2021/01/29 11:03:21;;;;;;;;;;;8.80;99.90;;;;;;5088961;28;19926;-73
2021/01/29 11:06:29;;;;;;;;;;;8.70;99.90;;;;;;5087921;28;19931;-73
2021/01/29 11:09:33;;;;;;;;;;;8.80;99.90;;;;;;5085522;28;19920;-73
2021/01/29 11:12:40;;;;;;;;;;;8.70;99.90;;;;;;5080977;28;19923;-74
2021/01/29 11:15:55;;;;;;;;;;;8.70;99.90;;;;;;5090961;28;19919;-73
2021/01/29 11:19:02;;;;;;;;;;;8.60;99.90;;;;;;5089528;28;19942;-73
2021/01/29 11:22:18;;;;;;;;;;;8.70;99.90;;;;;;5092937;28;19928;-73
2021/01/29 11:25:33;;;;;;;;;;;8.60;99.90;;;;;;5090789;28;19919;-73
2021/01/29 11:28:41;;;;;;;;;;;8.50;99.90;;;;;;5088769;28;19943;-74
2021/01/29 11:31:46;;;;;;;;;;;8.30;99.90;;;;;;5088366;28;20571;-73
2021/01/29 11:35:06;;;;;;;;;;;8.30;99.90;;;;;;5092184;28;19934;-73
2021/01/29 11:38:18;;;;;;;;;;;8.30;99.90;;;;;;5089345;28;19919;-73
2021/01/29 11:41:24;;;;;;;;;;;8.30;99.90;;;;;;5096139;28;19919;-73
2021/01/29 11:44:35;;;;;;;;;;;8.50;99.90;;;;;;5089739;28;19923;-73
2021/01/29 11:47:53;;;;;;;;;;;8.60;99.90;;;;;;5096184;28;19934;-74
2021/01/29 11:51:05;;;;;;;;;;;8.60;99.90;;;;;;5084115;28;19931;-73
2021/01/29 11:54:23;;;;;;;;;;;8.60;99.90;;;;;;5078354;28;19923;-73
2021/01/29 11:57:44;;;;;;;;;;;8.50;99.90;;;;;;5086260;28;19949;-73
2021/01/29 12:00:55;;;;;;;;;;;8.60;99.90;;;;;;5101124;28;19919;-74
2021/01/29 12:04:07;;;;;;;;;;;8.50;99.90;;;;;;5089306;28;19919;-74
2021/01/29 12:07:14;;;;;;;;;;;8.50;99.90;;;;;;5090983;28;19923;-74
2021/01/29 12:10:34;;;;;;;;;;;8.60;99.90;;;;;;5086797;28;19966;-73
2021/01/29 12:13:56;;;;;;;;;;;8.70;99.90;;;;;;5086603;28;20290;-73
2021/01/29 12:17:06;;;;;;;;;;;8.90;99.90;;;;;;5089234;28;20366;-73
2021/01/29 12:20:16;;;;;;;;;;;8.90;99.90;;;;;;5086884;28;19923;-74
2021/01/29 12:23:40;;;;;;;;;;;8.90;99.90;;;;;;5090676;28;20385;-74
2021/01/29 12:27:06;;;;;;;;;;;9.00;99.90;;;;;;5098571;28;19919;-74
2021/01/29 12:30:26;;;;;;;;;;;9.00;99.90;;;;;;5090554;28;19924;-73
2021/01/29 12:33:31;;;;;;;;;;;9.00;99.90;;;;;;5089770;28;19927;-73
2021/01/29 12:36:38;;;;;;;;;;;9.00;99.90;;;;;;5095332;28;19931;-73
2021/01/29 12:40:05;;;;;;;;;;;9.20;99.90;;;;;;5090142;28;20687;-74
2021/01/29 12:43:10;;;;;;;;;;;9.30;99.90;;;;;;5087974;28;19927;-74
2021/01/29 12:46:21;;;;;;;;;;;9.10;99.90;;;;;;5089418;28;19927;-73
2021/01/29 12:49:28;;;;;;;;;;;9.00;99.90;;;;;;5089613;28;19923;-73
2021/01/29 12:52:40;;;;;;;;;;;9.20;99.90;;;;;;5115989;27;19935;-73
2021/01/29 12:55:56;;;;;;;;;;;9.10;99.90;;;;;;5094074;28;20386;-74
2021/01/29 12:59:03;;;;;;;;;;;9.20;99.90;;;;;;5092907;28;19926;-74
2021/01/29 13:02:19;;;;;;;;;;;9.00;99.90;;;;;;5084186;28;19923;-73
2021/01/29 13:05:32;;;;;;;;;;;9.10;99.90;;;;;;5091280;28;20267;-74
2021/01/29 13:08:37;;;;;;;;;;;9.10;99.90;;;;;;5090850;28;19919;-74
2021/01/29 13:11:41;;;;;;;;;;;8.80;99.90;;;;;;5091152;28;19923;-74
2021/01/29 13:14:58;;;;;;;;;;;8.90;99.90;;;;;;5089831;28;19924;-74
2021/01/29 13:18:16;;;;;;;;;;;9.00;99.90;;;;;;5094736;28;21532;-74
2021/01/29 13:21:29;;;;;;;;;;;9.00;99.90;;;;;;5089248;28;20321;-73
2021/01/29 13:24:33;;;;;;;;;;;8.80;99.90;;;;;;5092014;28;19919;-75
2021/01/29 13:27:58;;;;;;;;;;;8.80;99.90;;;;;;5090017;28;19923;-74
2021/01/29 13:31:17;;;;;;;;;;;8.90;99.90;;;;;;5090731;28;19982;-74
2021/01/29 13:34:24;;;;;;;;;;;9.10;99.90;;;;;;5091044;28;19927;-74
2021/01/29 13:37:29;;;;;;;;;;;9.20;99.90;;;;;;5092233;28;19923;-74
2021/01/29 13:40:33;;;;;;;;;;;9.20;99.90;;;;;;5092074;28;19927;-74
2021/01/29 13:43:38;;;;;;;;;;;9.40;99.90;;;;;;5094686;28;19924;-73
2021/01/29 13:46:49;;;;;;;;;;;9.40;99.90;;;;;;5090108;28;19931;-74
2021/01/29 13:49:53;;;;;;;;;;;9.50;99.90;;;;;;5091147;28;20451;-73
2021/01/29 13:52:58;;;;;;;;;;;9.50;99.90;;;;;;5091702;28;19919;-74
2021/01/29 13:56:06;;;;;;;;;;;9.60;99.90;;;;;;5090782;28;19931;-74
2021/01/29 13:59:32;;;;;;;;;;;9.60;99.90;;;;;;5087862;28;19923;-74
2021/01/29 14:02:51;;;;;;;;;;;9.80;99.90;;;;;;5094384;28;19918;-73
2021/01/29 14:05:58;;;;;;;;;;;10.00;99.90;;;;;;5099816;28;20290;-73
2021/01/29 14:09:03;;;;;;;;;;;10.00;99.90;;;;;;5117264;27;20025;-73
2021/01/29 14:12:07;;;;;;;;;;;10.10;99.90;;;;;;5116114;27;20623;-73
2021/01/29 14:15:32;;;;;;;;;;;10.30;99.90;;;;;;5095327;28;19927;-73
2021/01/29 14:18:42;;;;;;;;;;;10.50;99.90;;;;;;5095642;28;19935;-73
2021/01/29 14:21:49;;;;;;;;;;;10.60;99.90;;;;;;5096113;28;19927;-72
2021/01/29 14:24:58;;;;;;;;;;;10.70;99.90;;;;;;5104389;28;20262;-72
2021/01/29 14:28:05;;;;;;;;;;;10.80;99.90;;;;;;5095925;28;19920;-72
2021/01/29 14:31:29;;;;;;;;;;;10.90;99.90;;;;;;5092043;28;19930;-72
2021/01/29 14:34:49;;;;;;;;;;;10.90;99.90;;;;;;5099309;28;21397;-72
2021/01/29 14:38:14;;;;;;;;;;;11.00;99.90;;;;;;5102532;28;19919;-72
2021/01/29 14:41:21;;;;;;;;;;;11.00;99.90;;;;;;5096563;28;19923;-72
2021/01/29 14:44:31;;;;;;;;;;;11.00;99.90;;;;;;5096927;28;19927;-72
2021/01/29 14:47:35;;;;;;;;;;;11.10;99.90;;;;;;5098993;28;19916;-72
2021/01/29 14:51:00;;;;;;;;;;;11.10;99.90;;;;;;5100921;28;19926;-73
2021/01/29 14:54:15;;;;;;;;;;;11.10;99.90;;;;;;5092772;28;19923;-73
2021/01/29 14:57:23;;;;;;;;;;;11.00;99.90;;;;;;5093894;28;19923;-72
2021/01/29 15:00:34;;;;;;;;;;;11.00;99.90;;;;;;5092644;28;19919;-72
2021/01/29 15:03:52;;;;;;;;;;;11.00;99.90;;;;;;5090098;28;19927;-73
2021/01/29 15:07:01;;;;;;;;;;;10.90;99.90;;;;;;5094377;28;19920;-73
2021/01/29 15:10:05;;;;;;;;;;;10.90;99.90;;;;;;5097822;28;19927;-72
2021/01/29 15:13:11;;;;;;;;;;;10.90;99.90;;;;;;5097553;28;19927;-72
2021/01/29 15:16:50;;;;;;;;;;;10.80;99.90;;;;;;5095715;28;19919;-72
2021/01/29 15:20:10;;;;;;;;;;;10.80;99.90;;;;;;5044867;28;19920;-72
2021/01/29 15:23:14;;;;;;;;;;;10.80;99.90;;;;;;5094713;28;19919;-73
2021/01/29 15:26:19;;;;;;;;;;;10.80;99.90;;;;;;5097996;28;19927;-72
2021/01/29 15:29:23;;;;;;;;;;;10.70;99.90;;;;;;5084572;28;19923;-73
2021/01/29 15:32:36;;;;;;;;;;;10.70;99.90;;;;;;5091057;28;19931;-72
2021/01/29 15:35:41;;;;;;;;;;;10.80;99.90;;;;;;5092009;28;19923;-73
2021/01/29 15:38:49;;;;;;;;;;;10.80;99.90;;;;;;5089074;28;19955;-73
2021/01/29 15:41:55;;;;;;;;;;;10.80;99.90;;;;;;5100379;28;20374;-72
2021/01/29 15:44:58;;;;;;;;;;;10.80;99.90;;;;;;5104118;28;19923;-72
2021/01/29 15:48:09;;;;;;;;;;;10.80;99.90;;;;;;5089697;28;20381;-73
2021/01/29 15:51:13;;;;;;;;;;;10.70;99.90;;;;;;5087634;28;19919;-73
2021/01/29 15:54:24;;;;;;;;;;;10.70;99.90;;;;;;5085619;28;19920;-72
2021/01/29 15:57:43;;;;;;;;;;;10.70;99.90;;;;;;5089019;28;19939;-72
2021/01/29 16:00:49;;;;;;;;;;;10.70;99.90;;;;;;5091980;28;19935;-72
2021/01/29 16:03:53;;;;;;;;;;;10.70;99.90;;;;;;5092681;28;19912;-72
2021/01/29 16:07:02;;;;;;;;;;;10.70;99.90;;;;;;5093672;28;20874;-72
2021/01/29 16:10:09;;;;;;;;;;;10.70;99.90;;;;;;5095179;28;19939;-72
2021/01/29 16:13:34;;;;;;;;;;;10.60;99.90;;;;;;5090149;28;19919;-72
2021/01/29 16:16:41;;;;;;;;;;;10.60;99.90;;;;;;5091105;28;19912;-72
2021/01/29 16:19:47;;;;;;;;;;;10.50;99.90;;;;;;5090586;28;19923;-72
2021/01/29 16:22:57;;;;;;;;;;;10.60;99.90;;;;;;5096071;28;19923;-72
2021/01/29 16:26:01;;;;;;;;;;;10.50;99.90;;;;;;5091204;28;19931;-72
2021/01/29 16:29:08;;;;;;;;;;;10.50;99.90;;;;;;5098425;28;19919;-72
2021/01/29 16:32:14;;;;;;;;;;;10.60;99.90;;;;;;5088560;28;19919;-72
2021/01/29 16:35:23;;;;;;;;;;;10.50;99.90;;;;;;5091049;28;19942;-72
2021/01/29 16:38:33;;;;;;;;;;;10.50;99.90;;;;;;5093008;28;19919;-72
2021/01/29 16:41:37;;;;;;;;;;;10.50;99.90;;;;;;5090575;28;19923;-73
2021/01/29 16:45:02;;;;;;;;;;;10.40;99.90;;;;;;5091458;28;19931;-73
2021/01/29 16:48:08;;;;;;;;;;;10.40;99.90;;;;;;5091446;28;19919;-73
2021/01/29 16:51:17;;;;;;;;;;;10.50;99.90;;;;;;5091008;28;19916;-72
2021/01/29 16:54:23;;;;;;;;;;;10.50;99.90;;;;;;5090837;28;20283;-72
2021/01/29 16:57:27;;;;;;;;;;;10.60;99.90;;;;;;5088273;28;19927;-72
2021/01/29 17:00:36;;;;;;;;;;;10.50;99.90;;;;;;5090941;28;19919;-73
2021/01/29 17:03:45;;;;;;;;;;;10.50;99.90;;;;;;5091929;28;19923;-73
2021/01/29 17:06:54;;;;;;;;;;;10.40;99.90;;;;;;5091924;28;19923;-73
2021/01/29 17:10:17;;;;;;;;;;;10.50;99.90;;;;;;5111587;27;20551;-72
2021/01/29 17:13:22;;;;;;;;;;;10.50;99.90;;;;;;5090045;28;19919;-73
2021/01/29 17:16:30;;;;;;;;;;;10.50;99.90;;;;;;5090031;28;19919;-73
2021/01/29 17:19:34;;;;;;;;;;;10.50;99.90;;;;;;5089924;28;19986;-72
2021/01/29 17:22:39;;;;;;;;;;;10.50;99.90;;;;;;5090202;28;19923;-73
2021/01/29 17:25:44;;;;;;;;;;;10.40;99.90;;;;;;5089229;28;19923;-72
2021/01/29 17:28:50;;;;;;;;;;;10.40;99.90;;;;;;5092359;28;20278;-73
2021/01/29 17:31:59;;;;;;;;;;;10.40;99.90;;;;;;5099092;28;19919;-72
2021/01/29 17:35:25;;;;;;;;;;;10.40;99.90;;;;;;5099557;28;20286;-73
2021/01/29 17:38:33;;;;;;;;;;;10.40;99.90;;;;;;5084135;28;19930;-72
2021/01/29 17:41:37;;;;;;;;;;;10.40;99.90;;;;;;5091583;28;19912;-72
2021/01/29 17:44:47;;;;;;;;;;;10.40;99.90;;;;;;5090733;28;20291;-73
2021/01/29 17:48:00;;;;;;;;;;;10.30;99.90;;;;;;5089559;28;19924;-73
2021/01/29 17:51:05;;;;;;;;;;;10.30;99.90;;;;;;5089162;28;19920;-73
2021/01/29 17:54:13;;;;;;;;;;;10.30;99.90;;;;;;5090578;28;19983;-72
2021/01/29 17:57:31;;;;;;;;;;;10.30;99.90;;;;;;5117034;27;20421;-72
2021/01/29 18:00:35;;;;;;;;;;;10.30;99.90;;;;;;5082647;28;19927;-73
2021/01/29 18:03:48;;;;;;;;;;;10.20;99.90;;;;;;5090435;28;19919;-72
2021/01/29 18:06:58;;;;;;;;;;;10.30;99.90;;;;;;5088923;28;19919;-72
2021/01/29 18:10:05;;;;;;;;;;;10.20;99.90;;;;;;5096556;28;20711;-73
2021/01/29 18:13:24;;;;;;;;;;;10.30;99.90;;;;;;5085045;28;19920;-73
2021/01/29 18:16:33;;;;;;;;;;;10.30;99.90;;;;;;5090309;28;19923;-73
2021/01/29 18:19:50;;;;;;;;;;;10.30;99.90;;;;;;5088251;28;19935;-72
2021/01/29 18:22:54;;;;;;;;;;;10.30;99.90;;;;;;5089544;28;19920;-73
2021/01/29 18:25:59;;;;;;;;;;;10.20;99.90;;;;;;5084547;28;19919;-73
2021/01/29 18:29:05;;;;;;;;;;;10.30;99.90;;;;;;5090507;28;19951;-73
2021/01/29 18:32:09;;;;;;;;;;;10.20;99.90;;;;;;5089760;28;19916;-73
2021/01/29 18:35:14;;;;;;;;;;;10.20;99.90;;;;;;5082983;28;19920;-73
2021/01/29 18:38:18;;;;;;;;;;;10.20;99.90;;;;;;5091268;28;20433;-73
2021/01/29 18:41:24;;;;;;;;;;;10.20;99.90;;;;;;5088001;28;19935;-73
2021/01/29 18:44:28;;;;;;;;;;;10.20;99.90;;;;;;5090714;28;19923;-74
2021/01/29 18:47:32;;;;;;;;;;;10.20;99.90;;;;;;5094025;28;19935;-73
2021/01/29 18:50:38;;;;;;;;;;;10.30;99.90;;;;;;5091183;27;20301;-73
2021/01/29 18:53:44;;;;;;;;;;;10.20;99.90;;;;;;5092624;28;19923;-72
2021/01/29 18:56:48;;;;;;;;;;;10.30;99.90;;;;;;5092451;28;20626;-74
2021/01/29 18:59:52;;;;;;;;;;;10.30;99.90;;;;;;5088244;28;19934;-73